Time;durP1;ratioP1;P1;durP2;ratioP2;P2;SDS_P1;SDS_P2;PMS_P1;PMS_P2;Temp;Humidity;BMP_temperature;BMP_pressure;BME280_temperature;BME280_humidity;BME280_pressure;Samples;Min_cycle;Max_cycle;Signal;HPM_P1;HPM_P2
2022/01/23 00:00:32;;;;;;;49.30;23.40;;;;;;;5.23;68.02;96783.28;5029020;28;20041;-63
2022/01/23 00:03:01;;;;;;;39.47;16.42;;;;;;;4.60;70.84;96815.50;5028665;28;20033;-63
2022/01/23 00:05:34;;;;;;;44.10;22.75;;;;;;;4.81;66.96;96624.34;5028640;28;20030;-63
2022/01/23 00:08:00;;;;;;;46.88;21.13;;;;;;;4.83;66.29;96641.56;5028187;28;20032;-63
2022/01/23 00:10:26;;;;;;;48.53;24.00;;;;;;;6.46;65.71;96834.19;5029091;28;20438;-63
2022/01/23 00:13:01;;;;;;;50.40;24.90;;;;;;;6.29;64.59;96777.81;5031556;28;20040;-64
2022/01/23 00:18:10;;;;;;;51.35;24.65;;;;;;;5.93;64.04;96684.69;5031776;28;20037;-63
2022/01/23 00:20:36;;;;;;;47.13;23.27;;;;;;;5.87;64.14;96739.22;5032465;28;20091;-62
2022/01/23 00:23:12;;;;;;;39.58;21.40;;;;;;;5.17;66.78;96740.16;5032018;28;20075;-63
2022/01/23 00:31:05;;;;;;;42.72;22.35;;;;;;;6.39;63.49;96783.28;5032324;28;20037;-63
2022/01/23 00:33:31;;;;;;;44.78;22.80;;;;;;;6.30;63.42;96740.59;5030434;28;20025;-63
2022/01/23 00:35:57;;;;;;;37.63;22.25;;;;;;;6.18;64.33;96774.16;5032080;28;20018;-64
2022/01/23 00:38:22;;;;;;;52.75;23.95;;;;;;;6.60;63.11;96787.88;5031870;28;20040;-63
2022/01/23 00:40:48;;;;;;;37.40;20.08;;;;;;;6.08;65.00;96806.47;5032137;28;20057;-64
2022/01/23 00:43:25;;;;;;;44.95;21.35;;;;;;;5.93;63.73;96745.44;5031933;28;20421;-63
2022/01/23 00:45:56;;;;;;;36.08;20.08;;;;;;;5.56;65.17;96751.00;5032211;28;20056;-63
2022/01/23 00:48:27;;;;;;;35.40;20.35;;;;;;;6.06;63.86;96771.59;5031251;28;20029;-63
2022/01/23 00:50:53;;;;;;;39.42;21.10;;;;;;;6.21;64.02;96813.34;5030369;28;20037;-63
2022/01/23 00:53:18;;;;;;;40.70;21.27;;;;;;;6.23;62.69;96748.66;5031498;28;20094;-64
2022/01/23 00:55:46;;;;;;;41.15;20.63;;;;;;;5.37;65.44;96757.44;5032016;28;20036;-63
2022/01/23 00:58:12;;;;;;;43.60;22.17;;;;;;;5.66;64.12;96729.28;5031762;28;20029;-63
2022/01/23 01:00:39;;;;;;;34.90;19.50;;;;;;;4.62;66.15;96665.84;5032011;28;20099;-64
2022/01/23 01:03:05;;;;;;;34.03;19.55;;;;;;;4.86;67.61;96761.56;5031485;28;20028;-63
2022/01/23 01:05:31;;;;;;;39.28;20.40;;;;;;;5.25;67.83;96812.06;5031394;28;20119;-63
2022/01/23 01:07:59;;;;;;;38.25;19.25;;;;;;;4.15;68.42;96665.78;5030885;28;20040;-63
2022/01/23 01:10:33;;;;;;;35.95;18.25;;;;;;;4.64;69.40;96774.47;5031703;28;20030;-63
2022/01/23 01:13:01;;;;;;;43.33;21.55;;;;;;;5.24;66.76;96729.47;5031335;28;20048;-63
2022/01/23 01:16:34;;;;;;;32.85;18.83;;;;;;;4.25;67.16;96641.50;5030440;28;20033;-63
2022/01/23 01:31:42;;;;;;;36.28;20.63;;;;;;;6.69;62.09;96786.47;5031395;28;20514;-64
2022/01/23 01:34:13;;;;;;;37.63;21.08;;;;;;;4.35;63.33;96502.13;5030520;28;20018;-63
2022/01/23 01:36:47;;;;;;;45.70;21.90;;;;;;;6.99;62.16;96865.53;5030389;28;20614;-64
2022/01/23 01:39:18;;;;;;;36.95;21.05;;;;;;;4.72;63.37;96579.13;5029516;28;20487;-63
2022/01/23 01:41:44;;;;;;;42.17;22.20;;;;;;;5.63;61.46;96603.03;5029852;28;20364;-64
2022/01/23 01:44:10;;;;;;;40.35;21.15;;;;;;;5.88;60.89;96669.50;5030720;28;20049;-64
2022/01/23 01:46:36;;;;;;;48.65;22.95;;;;;;;5.40;61.33;96583.63;5030386;28;20030;-64
2022/01/23 01:49:01;;;;;;;39.60;21.85;;;;;;;7.14;61.09;96809.44;5030484;28;20040;-64
2022/01/23 01:51:31;;;;;;;34.80;21.10;;;;;;;6.93;60.82;96794.28;5030412;28;20021;-64
2022/01/23 01:54:04;;;;;;;35.90;19.92;;;;;;;6.50;61.43;96754.16;5028935;28;20386;-64
2022/01/23 01:56:36;;;;;;;42.70;22.63;;;;;;;6.87;60.23;96713.25;5030199;28;20026;-63
2022/01/23 01:59:16;;;;;;;;;;;;;;;7.64;59.24;96803.28;5031121;28;20044;-64
2022/01/23 02:17:17;;;;;;;35.83;19.80;;;;;;;4.54;64.83;96621.38;5029814;28;20045;-64
2022/01/23 02:54:56;;;;;;;35.25;20.52;;;;;;;6.19;61.27;96676.19;5029588;28;20034;-64
2022/01/23 02:57:37;;;;;;;41.70;21.88;;;;;;;6.14;61.23;96697.25;5029209;28;20071;-65
2022/01/23 03:00:15;;;;;;;37.75;20.83;;;;;;;5.98;61.12;96622.19;5029978;28;20040;-64
2022/01/23 03:02:48;;;;;;;35.63;20.60;;;;;;;5.46;60.37;96535.19;5029626;28;20529;-65
2022/01/23 03:08:21;;;;;;;43.47;22.27;;;;;;;6.44;58.83;96620.28;5028003;28;20068;-62
2022/01/23 03:10:59;;;;;;;39.70;21.10;;;;;;;4.90;61.21;96509.59;5029340;28;20033;-64
2022/01/23 03:24:33;;;;;;;45.40;22.40;;;;;;;8.58;57.34;96824.31;5027832;28;20041;-64
2022/01/23 03:29:51;;;;;;;44.85;22.73;;;;;;;6.64;56.90;96497.38;5029737;28;20040;-64
2022/01/23 03:32:31;;;;;;;38.88;21.38;;;;;;;6.97;56.27;96559.97;5029256;28;20474;-63
2022/01/23 03:34:57;;;;;;;38.92;21.23;;;;;;;7.35;56.55;96667.59;5028444;28;20029;-64
2022/01/23 03:37:22;;;;;;;42.78;21.85;;;;;;;8.41;56.33;96838.72;5028514;28;20025;-64
2022/01/23 03:39:47;;;;;;;38.13;20.73;;;;;;;6.77;56.45;96550.72;5027823;28;20025;-64
2022/01/23 03:42:13;;;;;;;34.10;20.90;;;;;;;7.61;57.52;96805.59;5029550;28;20068;-66
2022/01/23 03:44:43;;;;;;;35.33;20.48;;;;;;;7.04;57.90;96675.13;5029220;28;20052;-65
2022/01/23 03:47:32;;;;;;;33.22;20.42;;;;;;;7.65;57.56;96756.41;5032338;28;20026;-65
2022/01/23 03:49:58;;;;;;;38.55;21.00;;;;;;;6.55;56.61;96504.13;5032598;28;20382;-66
2022/01/23 03:52:26;;;;;;;30.65;19.08;;;;;;;6.53;58.48;96692.06;5031424;28;20025;-66
2022/01/23 03:54:51;;;;;;;34.08;19.10;;;;;;;6.09;57.37;96537.81;5032612;28;20030;-67
2022/01/23 03:57:17;;;;;;;35.45;20.67;;;;;;;6.84;56.38;96555.81;5032300;28;20390;-65
2022/01/23 03:59:42;;;;;;;35.25;19.73;;;;;;;7.71;56.35;96674.13;5033029;28;20486;-65
2022/01/23 04:02:08;;;;;;;34.38;19.63;;;;;;;7.00;55.29;96601.78;5032843;28;20091;-66
2022/01/23 04:04:39;;;;;;;26.70;17.65;;;;;;;7.35;57.43;96784.06;5032127;28;20053;-65
2022/01/23 04:07:08;;;;;;;29.33;18.30;;;;;;;7.08;56.40;96592.63;5031825;28;20017;-66
2022/01/23 04:09:34;;;;;;;25.88;16.80;;;;;;;5.29;59.15;96557.31;5032642;28;20029;-65
2022/01/23 04:12:01;;;;;;;27.85;17.73;;;;;;;5.86;57.64;96531.66;5032470;28;20099;-66
2022/01/23 04:14:28;;;;;;;30.05;17.90;;;;;;;7.71;57.97;96788.00;5032482;28;20049;-65
2022/01/23 05:00:17;;;;;;;19.02;13.48;;;;;;;6.14;58.89;96656.78;5032033;28;20532;-66
2022/01/23 05:05:31;;;;;;;19.13;13.23;;;;;;;4.57;60.50;96511.06;5031256;28;20030;-66
2022/01/23 05:07:57;;;;;;;18.73;13.57;;;;;;;7.09;59.89;96864.13;5031168;28;20026;-65
2022/01/23 05:10:23;;;;;;;22.13;14.23;;;;;;;5.83;58.51;96518.91;5031505;28;20830;-65
2022/01/23 05:12:48;;;;;;;22.23;13.80;;;;;;;7.00;58.11;96734.06;5031568;28;20040;-66
2022/01/23 05:15:14;;;;;;;20.25;13.45;;;;;;;6.29;58.13;96653.59;5031143;28;20494;-66
2022/01/23 05:17:39;;;;;;;21.20;12.57;;;;;;;6.52;59.94;96790.94;5031178;28;20026;-65
2022/01/23 05:20:06;;;;;;;19.20;12.98;;;;;;;7.02;58.90;96787.53;5031149;28;20100;-65
2022/01/23 05:22:46;;;;;;;20.25;13.20;;;;;;;5.87;58.01;96604.53;5029961;28;20673;-65
2022/01/23 05:27:37;;;;;;;17.73;13.27;;;;;;;6.37;57.37;96561.53;5031068;28;20390;-65
2022/01/23 05:30:04;;;;;;;17.40;12.55;;;;;;;6.81;56.36;96566.06;5031270;28;20029;-66
2022/01/23 05:32:35;;;;;;;18.83;12.55;;;;;;;7.37;55.81;96612.56;5031347;28;20026;-66
2022/01/23 05:35:02;;;;;;;17.00;12.77;;;;;;;6.17;56.13;96503.09;5030386;28;20057;-66
2022/01/23 05:37:27;;;;;;;18.75;12.85;;;;;;;7.93;55.53;96727.06;5030572;28;20041;-66
2022/01/23 05:39:53;;;;;;;18.38;12.63;;;;;;;6.03;57.08;96549.34;5030798;28;20026;-66
2022/01/23 05:42:18;;;;;;;13.57;11.65;;;;;;;5.82;57.28;96588.59;5031062;28;20580;-64
2022/01/23 05:44:44;;;;;;;14.43;12.23;;;;;;;6.15;58.06;96656.56;5030775;28;20104;-65
2022/01/23 05:47:11;;;;;;;15.27;12.18;;;;;;;6.15;59.22;96639.91;5030317;28;20017;-64
2022/01/23 05:49:37;;;;;;;16.85;12.38;;;;;;;5.02;58.52;96523.56;5030700;28;20107;-64
2022/01/23 05:52:05;;;;;;;20.00;12.45;;;;;;;6.54;59.06;96795.97;5030254;28;20101;-65
2022/01/23 05:54:31;;;;;;;17.88;13.20;;;;;;;7.55;58.36;96820.63;5030562;28;20022;-65
2022/01/23 05:56:56;;;;;;;12.68;11.30;;;;;;;5.13;59.40;96561.47;5030012;28;20025;-66
2022/01/23 05:59:22;;;;;;;15.27;12.02;;;;;;;5.91;58.74;96626.81;5030672;28;20030;-66
2022/01/23 06:01:51;;;;;;;17.42;12.13;;;;;;;5.88;57.71;96568.38;5030600;28;20394;-64
2022/01/23 06:04:20;;;;;;;14.00;11.13;;;;;;;4.80;60.60;96609.56;5030300;28;20036;-64
2022/01/23 06:06:46;;;;;;;13.20;11.63;;;;;;;4.94;61.92;96621.47;5029571;28;20467;-66
2022/01/23 06:09:12;;;;;;;19.88;12.32;;;;;;;6.16;61.70;96866.88;5029425;28;20026;-66
2022/01/23 06:11:37;;;;;;;14.68;12.43;;;;;;;6.15;61.19;96819.56;5030370;28;20033;-64
2022/01/23 06:14:03;;;;;;;17.23;12.50;;;;;;;5.53;61.58;96711.06;5029900;28;20025;-64
2022/01/23 06:16:28;;;;;;;19.00;12.70;;;;;;;4.35;62.35;96629.41;5029943;28;20037;-66
2022/01/23 06:18:53;;;;;;;15.43;12.65;;;;;;;6.47;60.94;96810.13;5030110;28;20029;-66
2022/01/23 06:21:21;;;;;;;16.67;13.75;;;;;;;5.70;60.77;96722.53;5029583;28;20033;-65
2022/01/23 06:23:54;;;;;;;18.30;13.27;;;;;;;5.63;59.23;96595.94;5029707;28;20094;-66
2022/01/23 06:26:19;;;;;;;18.10;13.38;;;;;;;5.28;59.29;96604.00;5029716;28;20082;-66
2022/01/23 06:29:01;;;;;;;21.85;15.07;;;;;;;6.01;60.51;96787.34;5030071;28;20033;-65
2022/01/23 06:31:27;;;;;;;17.48;13.63;;;;;;;4.61;60.86;96567.56;5030157;28;20044;-65
2022/01/23 06:33:52;;;;;;;20.25;14.25;;;;;;;4.50;62.39;96612.34;5029624;28;20033;-65
2022/01/23 06:36:17;;;;;;;20.70;14.70;;;;;;;6.54;61.06;96852.28;5029055;28;20398;-66
2022/01/23 06:38:43;;;;;;;17.67;14.15;;;;;;;4.74;61.13;96624.47;5029242;28;20064;-65
2022/01/23 06:41:09;;;;;;;23.20;15.75;;;;;;;5.92;60.75;96786.88;5029816;28;20566;-66
2022/01/23 06:43:34;;;;;;;22.85;14.35;;;;;;;4.52;60.70;96550.47;5029601;28;20037;-65
2022/01/23 06:45:59;;;;;;;22.92;16.23;;;;;;;6.67;61.00;96838.00;5029944;28;20025;-65
2022/01/23 06:48:25;;;;;;;20.77;15.13;;;;;;;5.98;59.88;96695.34;5029638;28;20017;-67
2022/01/23 06:50:50;;;;;;;25.05;16.27;;;;;;;7.58;59.01;96899.59;5029585;28;20036;-65
2022/01/23 06:53:16;;;;;;;24.55;16.25;;;;;;;5.85;58.63;96637.50;5029382;28;20025;-65
2022/01/23 06:55:41;;;;;;;21.48;15.73;;;;;;;6.57;58.10;96682.63;5029539;28;20471;-64
2022/01/23 06:58:07;;;;;;;28.73;15.90;;;;;;;6.08;59.50;96727.22;5029138;28;20087;-65
2022/01/23 07:00:33;;;;;;;23.08;15.50;;;;;;;5.13;59.02;96572.84;5028332;28;20410;-65
2022/01/23 07:02:59;;;;;;;20.85;15.63;;;;;;;5.04;58.69;96510.94;5029689;28;20053;-66
2022/01/23 07:05:25;;;;;;;23.00;15.93;;;;;;;6.41;57.66;96665.72;5029040;28;20030;-64
2022/01/23 07:07:50;;;;;;;22.27;15.95;;;;;;;7.09;58.44;96835.00;5028835;28;20032;-64
2022/01/23 07:10:16;;;;;;;20.58;15.63;;;;;;;6.94;58.88;96761.47;5029127;28;20078;-65
2022/01/23 07:12:42;;;;;;;25.88;15.70;;;;;;;7.54;57.39;96784.59;5029208;28;20116;-64
2022/01/23 07:15:08;;;;;;;20.90;15.77;;;;;;;4.97;58.65;96538.50;5029028;28;20037;-65
2022/01/23 07:17:39;;;;;;;20.88;15.18;;;;;;;6.17;57.31;96608.78;5029189;28;20075;-64
2022/01/23 07:20:05;;;;;;;30.23;17.23;;;;;;;6.48;57.35;96620.63;5027587;28;20124;-66
2022/01/23 07:22:30;;;;;;;22.67;16.38;;;;;;;6.86;56.85;96696.56;5029098;28;20029;-65
2022/01/23 07:25:00;;;;;;;22.52;15.93;;;;;;;6.85;56.37;96646.53;5028903;28;20084;-65
2022/01/23 07:27:28;;;;;;;28.33;16.80;;;;;;;8.83;55.23;96884.78;5029375;28;20026;-65
2022/01/23 07:29:54;;;;;;;24.35;16.52;;;;;;;6.97;54.96;96608.38;5029317;28;20056;-66
2022/01/23 07:32:19;;;;;;;22.67;16.35;;;;;;;7.71;56.83;96840.97;5029439;28;20025;-66
2022/01/23 07:34:45;;;;;;;26.35;17.08;;;;;;;6.68;55.95;96631.50;5028651;28;20028;-66
2022/01/23 07:37:12;;;;;;;23.52;16.55;;;;;;;5.74;56.57;96594.28;5028411;28;20057;-65
2022/01/23 07:39:38;;;;;;;21.73;15.65;;;;;;;7.19;58.22;96922.50;5029082;28;20065;-66
2022/01/23 07:42:04;;;;;;;20.90;15.75;;;;;;;5.00;59.41;96646.94;5029107;28;20060;-65
2022/01/23 07:44:29;;;;;;;19.05;15.88;;;;;;;5.72;59.74;96750.28;5028927;28;20022;-65
2022/01/23 07:46:54;;;;;;;20.88;15.70;;;;;;;5.96;60.14;96761.63;5029068;28;20018;-66
2022/01/23 07:49:20;;;;;;;21.92;16.15;;;;;;;6.66;58.23;96783.50;5028728;28;20108;-66
2022/01/23 07:51:46;;;;;;;23.55;17.65;;;;;;;7.53;57.64;96836.75;5028418;28;20482;-65
2022/01/23 07:54:11;;;;;;;22.25;16.35;;;;;;;7.49;57.55;96946.84;5028662;28;20045;-66
2022/01/23 07:56:42;;;;;;;23.35;17.15;;;;;;;6.77;56.87;96671.56;5028572;28;20049;-68
2022/01/23 07:59:09;;;;;;;21.70;15.98;;;;;;;8.04;56.33;96903.72;5029074;28;20112;-68
2022/01/23 08:01:36;;;;;;;18.70;14.93;;;;;;;6.81;55.72;96666.56;5028988;28;20026;-67
2022/01/23 08:04:01;;;;;;;24.08;17.73;;;;;;;7.73;54.84;96746.19;5028822;28;20029;-67
2022/01/23 08:06:32;;;;;;;25.77;17.30;;;;;;;8.24;54.68;96799.81;5027994;28;20018;-68
2022/01/23 08:08:57;;;;;;;21.38;16.30;;;;;;;7.20;54.01;96702.59;5028573;28;20128;-67
2022/01/23 08:11:23;;;;;;;24.00;17.13;;;;;;;7.95;53.66;96724.19;5027650;28;20029;-67
2022/01/23 08:13:48;;;;;;;20.13;16.10;;;;;;;7.77;53.51;96690.88;5028546;28;20032;-67
2022/01/23 08:16:13;;;;;;;18.58;15.60;;;;;;;8.51;52.96;96862.69;5029119;28;20108;-66
2022/01/23 08:18:39;;;;;;;17.67;14.70;;;;;;;7.27;53.36;96697.16;5028614;28;20036;-64
2022/01/23 08:21:04;;;;;;;25.13;15.15;;;;;;;7.17;53.74;96728.75;5028593;28;20460;-66
2022/01/23 08:23:30;;;;;;;20.63;15.23;;;;;;;7.33;54.51;96775.56;5028424;28;20103;-65
2022/01/23 08:25:55;;;;;;;21.42;14.48;;;;;;;8.83;53.88;96958.28;5028607;28;20068;-66
2022/01/23 08:28:21;;;;;;;18.50;14.85;;;;;;;8.77;53.88;96989.28;5028410;28;20057;-67
2022/01/23 08:30:46;;;;;;;17.30;15.18;;;;;;;8.88;53.82;96947.75;5028877;28;20033;-65
2022/01/23 08:33:12;;;;;;;23.17;15.52;;;;;;;8.63;53.36;96881.13;5030490;28;20490;-63
2022/01/23 08:35:40;;;;;;;21.33;15.52;;;;;;;9.22;52.88;96931.66;5030641;28;20457;-65
2022/01/23 08:38:06;;;;;;;18.75;14.80;;;;;;;7.76;53.87;96870.19;5031654;28;20017;-65
2022/01/23 08:43:13;;;;;;;18.50;15.30;;;;;;;6.72;54.66;96732.31;5012704;28;20041;-65
2022/01/23 08:45:39;;;;;;;21.77;16.00;;;;;;;6.58;54.51;96683.41;5012114;28;20054;-66
2022/01/23 08:48:05;;;;;;;18.35;15.88;;;;;;;6.54;55.41;96714.81;5011767;28;20050;-65
2022/01/23 08:50:30;;;;;;;19.50;16.08;;;;;;;6.84;54.83;96711.88;5012493;28;20101;-66
2022/01/23 08:52:56;;;;;;;20.92;16.30;;;;;;;6.55;55.31;96749.97;5031505;28;20119;-66
2022/01/23 08:55:21;;;;;;;20.10;16.23;;;;;;;6.77;55.97;96762.28;5031670;28;20029;-65
2022/01/23 08:57:47;;;;;;;24.80;16.67;;;;;;;7.24;54.40;96767.25;5031414;28;20442;-65
2022/01/23 09:00:14;;;;;;;21.58;16.52;;;;;;;8.01;56.01;96940.50;5031779;28;20025;-68
2022/01/23 09:02:40;;;;;;;19.15;14.80;;;;;;;4.99;60.77;96692.78;5031903;28;20025;-66
2022/01/23 09:05:05;;;;;;;23.38;16.80;;;;;;;7.94;57.43;96945.16;5031418;28;20060;-68
2022/01/23 09:07:31;;;;;;;17.08;15.07;;;;;;;6.44;56.45;96707.50;5030679;28;20033;-67
2022/01/23 09:10:03;;;;;;;20.33;15.43;;;;;;;6.48;56.72;96748.31;5031375;28;20410;-66
2022/01/23 09:15:03;;;;;;;16.50;14.80;;;;;;;7.60;56.33;96863.06;5031512;28;20029;-65
2022/01/23 09:17:28;;;;;;;19.08;14.57;;;;;;;6.85;54.57;96692.28;5029559;28;20655;-64
2022/01/23 09:19:54;;;;;;;16.25;14.52;;;;;;;8.51;53.57;96765.38;5031557;28;20104;-63
2022/01/23 09:22:19;;;;;;;17.85;15.05;;;;;;;6.66;55.08;96657.38;5031047;28;20120;-65
2022/01/23 09:24:45;;;;;;;18.23;15.80;;;;;;;7.75;53.67;96818.25;5030812;28;20486;-65
2022/01/23 09:27:18;;;;;;;17.15;15.23;;;;;;;8.77;54.82;96949.47;5031062;28;20040;-65
2022/01/23 09:29:47;;;;;;;22.08;16.08;;;;;;;8.66;54.45;96918.56;5029781;28;20088;-64
2022/01/23 09:32:14;;;;;;;23.02;16.17;;;;;;;9.20;52.67;96933.72;5031182;28;20056;-65
2022/01/23 09:34:42;;;;;;;19.48;15.35;;;;;;;8.13;53.74;96837.81;5030403;28;20021;-64
2022/01/23 09:37:10;;;;;;;19.30;16.20;;;;;;;8.33;55.09;96896.38;5030009;28;20029;-63
2022/01/23 09:39:37;;;;;;;17.58;14.45;;;;;;;8.42;55.04;96941.09;5030890;28;20022;-64
2022/01/23 09:42:12;;;;;;;17.80;15.68;;;;;;;8.48;54.67;96930.28;5030818;28;20538;-66
2022/01/23 09:44:42;;;;;;;16.85;15.00;;;;;;;8.26;54.11;96900.28;5030714;28;20649;-65
2022/01/23 09:47:11;;;;;;;16.30;13.93;;;;;;;7.44;56.56;96911.53;5030845;28;20036;-64
2022/01/23 09:49:37;;;;;;;18.85;14.18;;;;;;;6.92;59.81;96952.19;5031068;28;20040;-65
2022/01/23 09:52:03;;;;;;;19.27;15.63;;;;;;;8.43;56.18;96947.97;5030255;28;20021;-65
2022/01/23 09:54:31;;;;;;;19.08;15.43;;;;;;;8.63;55.15;96911.09;5029104;28;20532;-66
2022/01/23 09:57:00;;;;;;;18.10;15.63;;;;;;;9.25;53.76;96884.13;5029658;28;20029;-63
2022/01/23 09:59:27;;;;;;;17.65;15.25;;;;;;;9.74;51.67;96907.13;5029519;28;20029;-61
2022/01/23 10:01:56;;;;;;;15.65;13.98;;;;;;;9.03;53.60;96928.53;5029187;28;20053;-63
2022/01/23 10:04:25;;;;;;;15.05;13.45;;;;;;;7.00;56.17;96831.94;5030121;28;20112;-62
2022/01/23 10:06:52;;;;;;;15.65;13.40;;;;;;;6.59;58.27;96854.22;5029594;28;20061;-63
2022/01/23 10:09:21;;;;;;;17.95;14.27;;;;;;;8.24;56.29;96934.16;5030212;28;20108;-62
2022/01/23 10:11:48;;;;;;;16.15;14.55;;;;;;;8.83;54.42;96940.53;5028759;28;20052;-61
2022/01/23 10:14:17;;;;;;;15.23;13.73;;;;;;;8.40;53.32;96823.88;5030046;28;20124;-63
2022/01/23 10:16:44;;;;;;;16.40;14.70;;;;;;;8.56;53.09;96863.56;5029883;28;20030;-61
2022/01/23 10:19:10;;;;;;;17.23;13.75;;;;;;;8.08;52.49;96695.44;5030334;28;20033;-62
2022/01/23 10:21:38;;;;;;;14.80;13.35;;;;;;;7.89;54.03;96862.97;5029991;28;20382;-65
2022/01/23 10:24:06;;;;;;;16.50;14.88;;;;;;;9.47;53.08;96915.94;5029308;28;20479;-64
2022/01/23 10:26:50;;;;;;;14.45;13.13;;;;;;;8.10;55.78;96946.19;5029601;28;20034;-63
2022/01/23 10:29:22;;;;;;;13.55;12.23;;;;;;;7.82;55.10;96829.47;5010429;28;20071;-64
2022/01/23 10:32:18;;;;;;;16.30;14.52;;;;;;;8.46;53.98;96895.25;5010415;28;20478;-66
2022/01/23 10:34:48;;;;;;;15.52;14.13;;;;;;;8.79;54.56;96935.94;5008686;28;20025;-64
2022/01/23 10:37:31;;;;;;;18.17;16.23;;;;;;;9.89;52.72;96917.84;5020278;28;20028;-66
2022/01/23 10:39:58;;;;;;;15.30;13.70;;;;;;;8.46;52.37;96867.94;5029612;28;20061;-64
2022/01/23 10:47:56;;;;;;;15.63;14.13;;;;;;;8.73;52.65;96875.94;5029660;28;20585;-63
2022/01/23 10:50:24;;;;;;;14.73;13.23;;;;;;;7.76;53.22;96707.81;5029781;28;20124;-63
2022/01/23 10:52:51;;;;;;;15.40;13.90;;;;;;;8.46;51.53;96706.97;5029157;28;20021;-63
2022/01/23 10:55:26;;;;;;;17.23;15.27;;;;;;;9.01;50.48;96736.88;5021873;28;20112;-63
2022/01/23 10:57:54;;;;;;;15.73;14.13;;;;;;;9.56;51.11;96924.22;5028982;28;20128;-64
2022/01/23 11:00:25;;;;;;;15.30;13.65;;;;;;;9.57;51.04;96929.31;5028256;28;20030;-64
2022/01/23 11:02:52;;;;;;;16.30;14.77;;;;;;;8.21;50.77;96686.31;5029758;28;20021;-64
2022/01/23 11:05:19;;;;;;;17.70;15.80;;;;;;;9.10;51.00;96772.50;5027831;28;20311;-64
2022/01/23 11:07:47;;;;;;;16.80;15.13;;;;;;;8.58;49.37;96659.88;5028591;28;20531;-63
2022/01/23 11:10:16;;;;;;;16.17;14.48;;;;;;;7.86;50.70;96643.53;5029089;28;20116;-63
2022/01/23 11:18:12;;;;;;;16.70;14.98;;;;;;;9.28;49.94;96703.06;5028687;28;20040;-63
2022/01/23 11:20:41;;;;;;;16.30;14.60;;;;;;;8.53;49.99;96757.97;5029431;28;20025;-63
2022/01/23 11:23:24;;;;;;;17.60;15.93;;;;;;;11.14;48.60;96906.44;5028647;28;20107;-63
2022/01/23 11:25:52;;;;;;;15.98;14.40;;;;;;;10.17;49.31;96908.69;5028586;28;20029;-63
2022/01/23 11:28:19;;;;;;;16.85;15.15;;;;;;;10.10;49.02;96826.50;5027427;28;20686;-62
2022/01/23 11:30:48;;;;;;;16.88;15.27;;;;;;;10.10;49.07;96821.19;5028934;28;20037;-64
2022/01/23 11:33:17;;;;;;;16.92;15.23;;;;;;;10.00;48.73;96908.88;5029199;28;20022;-63
2022/01/23 11:35:43;;;;;;;17.02;15.38;;;;;;;9.67;49.24;96808.19;5028746;28;20025;-67
2022/01/23 11:38:15;;;;;;;20.75;16.98;;;;;;;9.84;47.07;96678.63;5028274;28;20029;-65
2022/01/23 11:54:49;;;;;;;18.98;16.98;;;;;;;10.01;49.00;96902.50;5024447;28;20112;-64
2022/01/23 11:57:33;;;;;;;20.63;17.17;;;;;;;11.11;47.33;96898.97;5021489;28;20447;-64
2022/01/23 12:00:04;;;;;;;17.52;15.65;;;;;;;9.08;52.04;96896.72;5028641;28;20022;-64
2022/01/23 12:02:36;;;;;;;17.70;15.90;;;;;;;9.30;50.34;96803.72;5028808;28;20021;-64
2022/01/23 12:05:11;;;;;;;18.25;16.40;;;;;;;9.64;50.42;96890.03;5027342;28;20026;-63
2022/01/23 12:07:39;;;;;;;18.52;16.08;;;;;;;10.88;47.90;96868.31;5028956;28;20479;-64
2022/01/23 12:10:30;;;;;;;19.10;16.23;;;;;;;11.18;47.83;96876.34;5032331;28;20117;-64
2022/01/23 12:13:33;;;;;;;19.80;16.73;;;;;;;11.88;46.24;96875.84;5032234;28;20052;-63
2022/01/23 12:18:42;;;;;;;16.42;14.82;;;;;;;10.99;43.69;96637.47;5032541;28;20398;-64
2022/01/23 12:21:28;;;;;;;17.17;15.45;;;;;;;9.19;44.46;96524.06;5032585;28;20026;-63
2022/01/23 12:24:04;;;;;;;17.92;16.13;;;;;;;9.81;48.52;96790.75;5029966;28;20030;-63
2022/01/23 12:26:30;;;;;;;17.55;15.38;;;;;;;10.26;47.80;96797.34;5031795;28;20548;-61
2022/01/23 12:29:09;;;;;;;17.25;15.57;;;;;;;10.76;46.02;96857.91;5032033;28;20033;-61
2022/01/23 12:31:34;;;;;;;16.60;14.93;;;;;;;10.83;47.28;96863.75;5032430;28;20036;-61
2022/01/23 12:34:02;;;;;;;16.77;15.18;;;;;;;9.64;46.33;96596.97;5031912;28;20022;-61
2022/01/23 12:36:31;;;;;;;17.10;15.30;;;;;;;10.97;45.86;96831.31;5032007;28;20587;-61
2022/01/23 12:39:19;;;;;;;16.00;14.40;;;;;;;11.19;44.78;96863.81;5031536;28;20017;-68
2022/01/23 12:41:51;;;;;;;15.80;14.30;;;;;;;11.87;44.98;96867.00;5031987;28;20521;-61
2022/01/23 12:44:22;;;;;;;15.90;14.40;;;;;;;12.44;43.70;96860.47;5031450;28;20013;-60
2022/01/23 12:46:50;;;;;;;15.25;13.80;;;;;;;12.62;42.95;96816.31;5031705;28;20017;-60
2022/01/23 12:49:19;;;;;;;13.95;12.68;;;;;;;12.17;42.51;96860.00;5030281;28;20075;-61
2022/01/23 12:51:47;;;;;;;15.15;13.75;;;;;;;12.43;41.79;96834.81;5031636;28;20501;-60
2022/01/23 12:54:16;;;;;;;15.85;14.35;;;;;;;12.71;42.06;96865.41;5031350;28;20528;-60
2022/01/23 12:56:44;;;;;;;15.00;13.70;;;;;;;11.99;42.65;96812.59;5031317;28;20487;-60
2022/01/23 12:59:21;;;;;;;15.40;13.75;;;;;;;10.97;45.11;96841.97;5031701;28;20036;-63
2022/01/23 13:01:48;;;;;;;14.35;12.98;;;;;;;8.80;47.09;96726.13;5032067;28;20412;-64
2022/01/23 13:04:15;;;;;;;13.45;12.05;;;;;;;8.74;48.63;96808.56;5031326;28;20467;-61
2022/01/23 13:07:00;;;;;;;13.55;12.30;;;;;;;9.59;46.96;96846.69;5029722;28;20038;-62
2022/01/23 13:12:09;;;;;;;15.82;14.05;;;;;;;9.89;46.24;96875.31;5031381;28;20029;-61
2022/01/23 13:14:53;;;;;;;16.33;14.63;;;;;;;10.08;47.31;96876.50;5030810;28;20017;-62
2022/01/23 13:17:54;;;;;;;18.67;16.50;;;;;;;9.09;50.74;96871.78;5031082;28;20037;-61
2022/01/23 13:32:02;;;;;;;21.40;18.83;;;;;;;8.68;52.95;96814.88;5031332;28;20095;-61
2022/01/23 13:34:31;;;;;;;22.52;17.52;;;;;;;8.37;53.82;96866.78;5030793;28;20027;-63
2022/01/23 13:36:59;;;;;;;22.40;17.92;;;;;;;9.60;51.04;96867.69;5030183;28;20410;-62
2022/01/23 13:39:45;;;;;;;19.65;17.45;;;;;;;9.19;51.02;96855.94;5030731;28;20490;-62
2022/01/23 13:53:12;;;;;;;18.85;16.23;;;;;;;10.23;48.64;96843.03;5030784;28;20065;-63
2022/01/23 13:58:42;;;;;;;18.60;16.52;;;;;;;9.01;51.56;96843.84;5024198;28;20036;-61
2022/01/23 14:02:15;;;;;;;20.67;16.35;;;;;;;9.49;50.82;96843.97;5030587;28;20025;-63
2022/01/23 14:04:06;;;;;;;19.17;15.10;;;;;;;9.28;49.17;96835.03;5029275;28;20445;-59
2022/01/23 14:06:31;;;;;;;19.17;15.02;;;;;;;8.99;49.61;96797.38;5030025;28;20022;-60
2022/01/23 14:09:08;;;;;;;16.70;14.02;;;;;;;9.05;49.94;96847.56;5029899;28;20044;-61
2022/01/23 14:11:35;;;;;;;16.35;14.60;;;;;;;9.14;50.36;96849.78;5028953;28;20407;-64
2022/01/23 14:14:19;;;;;;;20.38;15.45;;;;;;;9.25;49.86;96836.34;5028511;28;20029;-60
2022/01/23 14:16:46;;;;;;;20.05;15.75;;;;;;;9.98;49.07;96823.28;5028744;28;20026;-61
2022/01/23 14:19:22;;;;;;;18.77;15.50;;;;;;;9.38;48.34;96766.06;5029507;28;20041;-61
2022/01/23 14:21:59;;;;;;;20.38;16.60;;;;;;;8.45;48.00;96595.88;5030349;28;20029;-62
2022/01/23 14:24:34;;;;;;;19.30;16.55;;;;;;;10.59;48.17;96823.50;5029461;28;20030;-61
2022/01/23 14:27:06;;;;;;;17.85;15.25;;;;;;;9.84;47.36;96801.66;5029770;28;20105;-61
2022/01/23 14:29:34;;;;;;;19.10;15.68;;;;;;;9.47;48.35;96734.50;5029581;28;20550;-62
2022/01/23 14:32:34;;;;;;;21.65;16.73;;;;;;;9.30;51.02;96827.59;5029486;28;20040;-62
2022/01/23 14:35:14;;;;;;;20.27;16.27;;;;;;;9.70;48.93;96791.75;5027435;28;20049;-62
2022/01/23 14:37:42;;;;;;;18.10;15.95;;;;;;;10.60;48.45;96856.28;5027705;28;20021;-61
2022/01/23 14:40:22;;;;;;;21.15;16.85;;;;;;;10.42;48.29;96860.19;5028107;28;20025;-60
2022/01/23 14:42:59;;;;;;;20.77;16.08;;;;;;;9.30;49.21;96732.00;5029657;28;20030;-61
2022/01/23 14:45:26;;;;;;;16.45;14.30;;;;;;;10.35;48.40;96820.53;5028428;28;20026;-61
2022/01/23 14:47:52;;;;;;;13.88;12.45;;;;;;;9.02;48.93;96855.25;5028088;28;20022;-61
2022/01/23 14:50:20;;;;;;;14.48;12.75;;;;;;;9.57;48.95;96790.34;5029640;28;20032;-61
2022/01/23 14:52:47;;;;;;;15.05;13.45;;;;;;;8.97;49.83;96778.25;5029480;28;20032;-61